createdAt,value
2022-08-05T00:02:22.107Z,2.10
2022-08-05T00:04:55.075Z,2.60
2022-08-05T00:07:59.370Z,2.28
2022-08-05T00:10:10.204Z,1.80
2022-08-05T00:12:55.855Z,2.05
2022-08-05T00:15:55.606Z,2.08
2022-08-05T00:18:21.667Z,1.92
2022-08-05T00:20:50.992Z,2.08
2022-08-05T00:23:44.659Z,2.35
2022-08-05T00:26:06.482Z,2.80
2022-08-05T00:28:34.115Z,2.33
2022-08-05T00:31:04.528Z,2.42
2022-08-05T00:34:55.586Z,2.28
2022-08-05T00:37:11.496Z,2.35
2022-08-05T00:39:13.708Z,1.80
2022-08-05T00:41:51.778Z,2.20
2022-08-05T00:44:23.370Z,2.10
2022-08-05T00:47:02.150Z,2.35
2022-08-05T01:02:04.650Z,2.30
2022-08-05T01:04:35.787Z,2.30
2022-08-05T01:07:05.148Z,2.30
2022-08-05T01:09:32.825Z,2.95
2022-08-05T01:12:18.120Z,2.60
2022-08-05T01:14:55.923Z,2.47
2022-08-05T01:17:53.959Z,2.22
2022-08-05T01:20:51.786Z,2.50
2022-08-05T01:23:47.151Z,2.15
2022-08-05T01:26:53.452Z,2.70
2022-08-05T01:29:31.411Z,1.90
2022-08-05T01:32:06.499Z,2.50
2022-08-05T01:34:47.460Z,2.47
2022-08-05T01:37:25.936Z,2.35
2022-08-05T01:39:59.236Z,2.80
2022-08-05T01:42:27.263Z,2.78
2022-08-05T01:44:57.059Z,2.72
2022-08-05T01:47:38.844Z,3.05
2022-08-05T01:50:28.546Z,2.30
2022-08-05T01:53:02.328Z,2.40
2022-08-05T01:55:32.539Z,2.15
2022-08-05T01:58:12.357Z,2.35
2022-08-05T02:00:51.700Z,2.60
2022-08-05T02:03:31.268Z,2.60
2022-08-05T02:06:03.438Z,2.55
2022-08-05T02:08:54.972Z,2.30
2022-08-05T02:11:33.331Z,2.95
2022-08-05T02:14:12.372Z,2.50
2022-08-05T02:16:53.039Z,2.25
2022-08-05T02:19:34.606Z,2.65
2022-08-05T02:22:05.569Z,2.58
2022-08-05T02:24:39.127Z,2.03
2022-08-05T02:27:10.761Z,2.50
2022-08-05T02:29:58.883Z,2.42
2022-08-05T02:32:31.645Z,3.15
2022-08-05T02:35:13.531Z,3.15
2022-08-05T02:37:47.836Z,2.75
2022-08-05T02:40:23.072Z,2.40
2022-08-05T02:42:54.145Z,3.03
2022-08-05T02:45:25.286Z,3.00
2022-08-05T02:48:11.533Z,3.40
2022-08-05T02:50:47.139Z,2.75
2022-08-05T02:53:18.976Z,2.58
2022-08-05T02:55:59.633Z,3.33
2022-08-05T02:58:28.863Z,2.45
2022-08-05T03:01:01.836Z,2.95
2022-08-05T03:06:54.783Z,2.92
2022-08-05T03:09:05.129Z,2.85
2022-08-05T03:11:55.217Z,3.22
2022-08-05T03:14:22.239Z,2.22
2022-08-05T03:16:49.573Z,3.00
2022-08-05T03:19:34.054Z,2.78
2022-08-05T03:22:03.151Z,2.95
2022-08-05T03:24:32.366Z,3.03
2022-08-05T03:27:00.930Z,2.95
2022-08-05T03:29:45.407Z,2.97
2022-08-05T03:32:16.190Z,2.42
2022-08-05T03:34:51.139Z,2.75
2022-08-05T03:37:20.967Z,2.75
2022-08-05T03:40:01.301Z,2.67
2022-08-05T03:42:32.001Z,2.88
2022-08-05T03:45:01.893Z,2.60
2022-08-05T03:47:47.100Z,2.60
2022-08-05T03:50:16.389Z,2.63
2022-08-05T03:55:52.303Z,2.65
2022-08-05T03:56:26.783Z,2.83
2022-08-05T03:59:01.152Z,2.60
2022-08-05T04:01:32.291Z,3.10
2022-08-05T04:04:10.237Z,2.70
2022-08-05T04:06:47.390Z,2.63
2022-08-05T04:09:26.146Z,3.10
2022-08-05T04:11:56.826Z,3.08
2022-08-05T04:14:30.116Z,3.22
2022-08-05T04:17:00.404Z,2.75
2022-08-05T04:19:29.297Z,2.90
2022-08-05T04:22:09.546Z,3.10
2022-08-05T04:24:52.294Z,3.38
2022-08-05T04:27:41.769Z,3.15
2022-08-05T04:30:09.023Z,2.80
2022-08-05T04:32:36.731Z,2.88
2022-08-05T04:35:05.873Z,2.65
2022-08-05T04:38:00.870Z,3.08
2022-08-05T04:40:20.606Z,3.10
2022-08-05T04:42:47.636Z,2.92
2022-08-05T04:45:22.906Z,2.63
2022-08-05T04:48:16.557Z,2.85
2022-08-05T04:51:03.648Z,2.80
2022-08-05T04:53:39.150Z,3.35
2022-08-05T04:56:33.028Z,3.25
2022-08-05T04:58:56.646Z,3.13
2022-08-05T05:02:07.981Z,3.25
2022-08-05T05:04:10.868Z,3.75
2022-08-05T05:06:44.496Z,2.78
2022-08-05T05:09:14.062Z,2.90
2022-08-05T05:11:53.068Z,2.80
2022-08-05T05:14:31.562Z,2.45
2022-08-05T05:17:03.351Z,2.53
2022-08-05T05:19:36.617Z,2.50
2022-08-05T05:22:23.526Z,2.90
2022-08-05T05:24:57.633Z,2.50
2022-08-05T05:27:41.699Z,2.10
2022-08-05T05:30:29.348Z,2.20
2022-08-05T05:33:15.977Z,2.60
2022-08-05T05:35:45.589Z,2.00
2022-08-05T05:38:14.003Z,2.40
2022-08-05T05:40:50.068Z,2.38
2022-08-05T05:43:54.246Z,2.92
2022-08-05T05:46:15.861Z,2.53
2022-08-05T05:48:47.816Z,2.35
2022-08-05T05:51:22.834Z,2.53
2022-08-05T05:53:57.311Z,2.28
2022-08-05T05:56:32.825Z,2.63
2022-08-05T05:59:06.701Z,2.67
2022-08-05T06:01:37.641Z,3.13
2022-08-05T06:04:11.836Z,2.97
2022-08-05T06:06:42.597Z,3.20
2022-08-05T06:09:17.292Z,3.13
2022-08-05T06:12:01.014Z,3.65
2022-08-05T06:14:33.311Z,3.92
2022-08-05T06:17:22.190Z,3.72
2022-08-05T06:19:56.662Z,3.70
2022-08-05T06:22:34.862Z,4.05
2022-08-05T06:25:59.016Z,4.25
2022-08-05T06:28:11.584Z,4.43
2022-08-05T06:30:38.593Z,4.35
2022-08-05T06:33:05.596Z,3.92
2022-08-05T06:36:03.669Z,4.82
2022-08-05T06:38:35.849Z,4.60
2022-08-05T06:41:04.957Z,4.20
2022-08-05T06:43:57.506Z,4.28
2022-08-05T06:46:19.192Z,4.65
2022-08-05T06:48:56.050Z,3.85
2022-08-05T06:51:29.993Z,4.00
2022-08-05T06:53:59.528Z,4.75
2022-08-05T06:56:28.061Z,3.78
2022-08-05T06:58:55.602Z,4.25
2022-08-05T07:01:23.465Z,5.28
2022-08-05T07:03:54.792Z,4.20
2022-08-05T07:06:22.875Z,4.70
2022-08-05T07:08:51.912Z,4.22
2022-08-05T07:11:25.108Z,4.20
2022-08-05T07:14:15.519Z,4.10
2022-08-05T07:17:58.837Z,4.47
2022-08-05T07:20:16.825Z,4.53
2022-08-05T07:22:28.961Z,4.82
2022-08-05T07:24:59.149Z,4.32
2022-08-05T07:27:27.663Z,3.80
2022-08-05T07:30:27.579Z,4.10
2022-08-05T07:32:57.910Z,4.90
2022-08-05T07:36:03.567Z,4.35
2022-08-05T07:38:32.882Z,4.40
2022-08-05T07:41:04.554Z,4.28
2022-08-05T07:43:44.285Z,3.10
2022-08-05T07:46:24.494Z,3.50
2022-08-05T07:49:03.506Z,2.20
2022-08-05T07:51:40.934Z,2.20
2022-08-05T07:54:16.355Z,3.20
2022-08-05T07:57:14.028Z,3.17
2022-08-05T07:59:39.794Z,2.45
2022-08-05T08:02:15.942Z,3.35
2022-08-05T08:04:49.134Z,3.03
2022-08-05T08:07:22.814Z,3.58
2022-08-05T08:09:52.505Z,3.22
2022-08-05T08:12:35.209Z,3.20
2022-08-05T08:15:09.709Z,2.80
2022-08-05T08:17:52.813Z,3.10
2022-08-05T08:20:44.242Z,3.05
2022-08-05T08:26:02.451Z,2.80
2022-08-05T08:28:36.482Z,3.10
2022-08-05T08:31:10.055Z,2.40
2022-08-05T08:33:43.748Z,2.80
2022-08-05T08:36:38.521Z,2.35
2022-08-05T08:38:58.109Z,2.50
2022-08-05T08:41:52.029Z,2.10
2022-08-05T08:45:22.069Z,2.47
2022-08-05T08:47:47.118Z,2.00
2022-08-05T08:50:05.841Z,2.28
2022-08-05T08:52:47.364Z,2.00
2022-08-05T08:56:02.205Z,2.60
2022-08-05T08:58:08.557Z,2.35
2022-08-05T09:00:36.155Z,2.50
2022-08-05T09:03:06.572Z,2.78
2022-08-05T09:05:38.355Z,2.10
2022-08-05T09:08:27.497Z,2.03
2022-08-05T09:10:58.347Z,2.50
2022-08-05T09:13:31.435Z,2.50
2022-08-05T09:15:59.760Z,2.60
2022-08-05T09:18:27.049Z,2.25
2022-08-05T09:20:54.741Z,2.30
2022-08-05T09:23:23.048Z,2.72
2022-08-05T09:26:10.609Z,2.40
2022-08-05T09:28:48.819Z,2.35
2022-08-05T09:31:23.266Z,2.70
2022-08-05T09:34:06.797Z,2.50
2022-08-05T09:36:56.156Z,2.13
2022-08-05T09:39:41.426Z,2.13
2022-08-05T09:42:24.309Z,2.40
2022-08-05T09:44:57.186Z,2.42
2022-08-05T09:47:48.029Z,2.58
2022-08-05T09:50:38.736Z,2.60
2022-08-05T09:53:08.900Z,2.35
2022-08-05T09:55:56.290Z,2.40
2022-08-05T09:58:29.183Z,2.67
2022-08-05T10:01:14.790Z,2.47
2022-08-05T10:03:58.473Z,2.78
2022-08-05T10:06:30.932Z,2.53
2022-08-05T10:09:27.418Z,2.33
2022-08-05T10:11:56.225Z,2.30
2022-08-05T10:14:24.894Z,2.70
2022-08-05T10:16:57.973Z,2.85
2022-08-05T10:19:31.927Z,2.80
2022-08-05T10:22:15.737Z,2.40
2022-08-05T10:24:56.798Z,2.60
2022-08-05T10:27:26.253Z,2.40
2022-08-05T10:31:20.262Z,2.38
2022-08-05T10:33:02.969Z,2.28
2022-08-05T10:35:33.946Z,2.58
2022-08-05T10:38:11.781Z,2.50
2022-08-05T10:44:11.507Z,2.38
2022-08-05T10:46:56.451Z,2.53
2022-08-05T10:49:26.890Z,2.35
2022-08-05T10:52:02.654Z,2.38
2022-08-05T10:54:55.889Z,2.72
2022-08-05T10:57:30.850Z,2.30
2022-08-05T11:00:22.877Z,2.05
2022-08-05T11:03:25.702Z,2.72
2022-08-05T11:06:15.513Z,2.47
2022-08-05T11:09:13.161Z,2.40
2022-08-05T11:11:53.600Z,2.30
2022-08-05T11:15:11.962Z,2.03
2022-08-05T11:17:59.071Z,2.28
2022-08-05T11:20:39.135Z,2.05
2022-08-05T11:23:33.231Z,2.25
2022-08-05T11:26:32.077Z,2.25
2022-08-05T11:29:12.605Z,2.45
2022-08-05T11:31:57.876Z,2.70
2022-08-05T11:34:39.037Z,2.50
2022-08-05T11:38:29.218Z,2.20
2022-08-05T11:40:00.749Z,2.63
2022-08-05T11:42:37.889Z,1.92
2022-08-05T11:45:14.339Z,2.20
2022-08-05T11:47:54.774Z,2.30
2022-08-05T11:50:22.731Z,2.00
2022-08-05T11:52:53.206Z,1.95
2022-08-05T11:55:31.574Z,2.20
2022-08-05T11:58:09.357Z,2.30
2022-08-05T12:00:41.235Z,2.10
2022-08-05T12:03:28.570Z,2.03
2022-08-05T12:06:01.810Z,2.40
2022-08-05T12:08:31.458Z,2.25
2022-08-05T12:11:05.550Z,1.80
2022-08-05T12:13:48.593Z,1.95
2022-08-05T12:16:19.059Z,2.00
2022-08-05T12:18:52.170Z,2.08
2022-08-05T12:21:26.669Z,2.20
2022-08-05T12:24:12.108Z,2.42
2022-08-05T12:26:44.035Z,2.30
2022-08-05T12:29:23.151Z,2.15
2022-08-05T12:32:02.196Z,2.10
2022-08-05T12:34:37.144Z,2.50
2022-08-05T12:37:17.410Z,2.20
2022-08-05T12:39:51.290Z,1.90
2022-08-05T12:42:20.720Z,1.80
2022-08-05T12:44:48.203Z,2.35
2022-08-05T12:47:28.543Z,2.22
2022-08-05T12:50:03.089Z,1.80
2022-08-05T12:52:38.878Z,2.00
2022-08-05T12:55:25.105Z,2.08
2022-08-05T12:58:48.551Z,2.17
2022-08-05T13:02:01.593Z,2.15
2022-08-05T13:03:32.440Z,2.08
2022-08-05T13:06:01.528Z,2.20
2022-08-05T13:08:32.850Z,2.13
2022-08-05T13:11:02.133Z,2.35
2022-08-05T13:14:04.991Z,2.00
2022-08-05T13:16:19.885Z,2.03
2022-08-05T13:18:55.145Z,2.10
2022-08-05T13:21:28.117Z,2.30
2022-08-05T13:24:05.465Z,2.40
2022-08-05T13:26:32.855Z,2.45
2022-08-05T13:28:59.898Z,2.42
2022-08-05T13:31:33.723Z,2.00
2022-08-05T13:34:22.197Z,1.98
2022-08-05T13:36:54.072Z,1.95
2022-08-05T13:40:13.027Z,2.33
2022-08-05T13:42:14.386Z,2.20
2022-08-05T13:44:46.173Z,2.67
2022-08-05T13:50:04.465Z,2.30
2022-08-05T13:52:35.522Z,2.33
2022-08-05T13:55:07.813Z,2.00
2022-08-05T13:57:51.011Z,2.10
2022-08-05T14:00:27.069Z,2.20
2022-08-05T14:02:57.483Z,2.28
2022-08-05T14:05:48.463Z,2.17
2022-08-05T14:08:21.223Z,2.20
2022-08-05T14:10:59.753Z,2.20
2022-08-05T14:13:42.262Z,2.20
2022-08-05T14:16:11.188Z,2.00
2022-08-05T14:18:38.641Z,1.98
2022-08-05T14:22:07.505Z,2.17
2022-08-05T14:23:53.246Z,1.80
2022-08-05T14:26:36.795Z,2.13
2022-08-05T14:29:15.904Z,2.28
2022-08-05T14:32:03.183Z,2.28
2022-08-05T14:34:35.393Z,2.03
2022-08-05T14:37:04.174Z,2.38
2022-08-05T14:39:50.259Z,2.10
2022-08-05T14:42:21.718Z,2.03
2022-08-05T14:44:56.831Z,2.30
2022-08-05T14:48:02.993Z,2.30
2022-08-05T14:50:18.117Z,2.22
2022-08-05T14:52:57.686Z,1.92
2022-08-05T14:55:28.527Z,2.25
2022-08-05T14:58:12.205Z,1.90
2022-08-05T15:00:59.531Z,2.28
2022-08-05T15:03:33.228Z,2.17
2022-08-05T15:06:06.907Z,2.20
2022-08-05T15:08:59.662Z,2.30
2022-08-05T15:11:23.800Z,1.90
2022-08-05T15:14:10.800Z,2.20
2022-08-05T15:16:47.534Z,2.50
2022-08-05T15:19:23.821Z,2.03
2022-08-05T15:21:51.379Z,2.10
2022-08-05T15:24:18.868Z,2.30
2022-08-05T15:26:47.081Z,2.15
2022-08-05T15:29:15.663Z,1.88
2022-08-05T15:31:42.717Z,1.90
2022-08-05T15:34:31.952Z,2.20
2022-08-05T15:36:58.313Z,2.22
2022-08-05T15:41:02.132Z,2.25
2022-08-05T15:42:54.279Z,2.35
2022-08-05T15:45:06.720Z,2.15
2022-08-05T15:47:36.274Z,2.00
2022-08-05T15:50:04.636Z,2.08
2022-08-05T15:52:53.346Z,2.20
2022-08-05T15:55:24.858Z,2.25
2022-08-05T15:58:16.419Z,2.38
2022-08-05T16:00:57.101Z,2.65
2022-08-05T16:03:33.826Z,2.50
2022-08-05T16:06:01.226Z,2.42
2022-08-05T16:08:30.819Z,2.22
2022-08-05T16:10:58.920Z,2.30
2022-08-05T16:13:32.036Z,2.20
2022-08-05T16:16:05.380Z,2.03
2022-08-05T16:18:33.137Z,2.08
2022-08-05T16:21:04.818Z,2.00
2022-08-05T16:23:54.620Z,2.55
2022-08-05T16:26:26.254Z,2.30
2022-08-05T16:28:54.499Z,1.98
2022-08-05T16:31:21.994Z,2.30
2022-08-05T16:33:49.659Z,2.47
2022-08-05T16:36:20.287Z,2.10
2022-08-05T16:38:54.667Z,2.45
2022-08-05T16:42:15.145Z,2.08
2022-08-05T16:44:11.723Z,1.90
2022-08-05T16:46:41.078Z,2.30
2022-08-05T16:49:09.951Z,2.33
2022-08-05T16:51:42.581Z,2.45
2022-08-05T16:54:23.981Z,2.30
2022-08-05T16:56:54.657Z,2.42
2022-08-05T16:59:23.032Z,2.47
2022-08-05T17:01:53.784Z,2.33
2022-08-05T17:04:26.362Z,2.17
2022-08-05T17:06:55.538Z,2.40
2022-08-05T17:09:24.040Z,2.15
2022-08-05T17:11:59.991Z,2.35
2022-08-05T17:14:37.754Z,2.30
2022-08-05T17:17:14.460Z,2.60
2022-08-05T17:19:45.390Z,2.63
2022-08-05T17:22:24.781Z,2.60
2022-08-05T17:24:57.943Z,2.47
2022-08-05T17:27:33.796Z,2.30
2022-08-05T17:30:03.505Z,2.25
2022-08-05T17:32:32.150Z,2.50
2022-08-05T17:35:00.773Z,2.63
2022-08-05T17:37:40.149Z,2.50
2022-08-05T17:40:12.456Z,2.20
2022-08-05T17:42:43.059Z,2.50
2022-08-05T17:45:22.111Z,2.67
2022-08-05T17:47:55.114Z,2.83
2022-08-05T17:50:30.358Z,2.53
2022-08-05T17:53:00.178Z,2.40
2022-08-05T17:55:37.808Z,2.58
2022-08-05T17:58:09.553Z,2.58
2022-08-05T18:00:40.761Z,2.90
2022-08-05T18:03:28.032Z,2.72
2022-08-05T18:06:04.983Z,2.42
2022-08-05T18:08:33.779Z,2.85
2022-08-05T18:11:01.288Z,2.58
2022-08-05T18:13:36.680Z,2.30
2022-08-05T18:16:13.652Z,2.30
2022-08-05T18:18:41.448Z,2.50
2022-08-05T18:21:19.980Z,2.45
2022-08-05T18:23:53.822Z,2.13
2022-08-05T18:26:27.489Z,2.45
2022-08-05T18:28:55.068Z,2.08
2022-08-05T18:31:23.958Z,2.30
2022-08-05T18:33:51.629Z,2.30
2022-08-05T18:36:19.356Z,2.60
2022-08-05T18:38:46.925Z,2.67
2022-08-05T18:41:56.091Z,2.70
2022-08-05T18:44:06.287Z,2.60
2022-08-05T18:46:35.265Z,2.80
2022-08-05T18:49:21.989Z,2.85
2022-08-05T18:52:08.882Z,3.22
2022-08-05T18:54:41.456Z,2.80
2022-08-05T18:57:15.389Z,2.72
2022-08-05T19:00:02.193Z,2.63
2022-08-05T19:02:30.468Z,2.20
2022-08-05T19:05:02.167Z,2.90
2022-08-05T19:07:49.821Z,2.90
2022-08-05T19:10:26.509Z,2.70
2022-08-05T19:12:55.843Z,2.45
2022-08-05T19:15:54.735Z,2.90
2022-08-05T19:18:13.576Z,2.63
2022-08-05T19:20:51.903Z,2.90
2022-08-05T19:24:04.941Z,2.60
2022-08-05T19:26:08.646Z,2.85
2022-08-05T19:28:43.188Z,3.08
2022-08-05T19:31:13.185Z,2.78
2022-08-05T19:33:48.642Z,2.65
2022-08-05T19:36:29.363Z,2.78
2022-08-05T19:38:58.769Z,2.70
2022-08-05T19:41:58.385Z,2.75
2022-08-05T19:44:16.133Z,2.90
2022-08-05T19:46:43.917Z,3.03
2022-08-05T19:49:12.445Z,2.85
2022-08-05T19:52:08.885Z,3.10
2022-08-05T19:54:34.568Z,3.33
2022-08-05T19:57:09.634Z,3.13
2022-08-05T19:59:59.468Z,3.22
2022-08-05T20:02:27.000Z,3.47
2022-08-05T20:04:59.205Z,2.97
2022-08-05T20:07:46.514Z,3.10
2022-08-05T20:10:16.779Z,3.10
2022-08-05T20:12:47.555Z,3.22
2022-08-05T20:15:48.574Z,2.78
2022-08-05T20:18:10.333Z,3.25
2022-08-05T20:20:56.736Z,3.40
2022-08-05T20:23:40.006Z,3.15
2022-08-05T20:26:16.613Z,3.03
2022-08-05T20:31:37.333Z,3.42
2022-08-05T20:34:11.093Z,3.20
2022-08-05T20:36:43.439Z,3.20
2022-08-05T20:39:13.285Z,3.08
2022-08-05T20:41:44.265Z,3.55
2022-08-05T20:47:01.578Z,3.78
2022-08-05T20:49:33.227Z,3.03
2022-08-05T20:52:07.777Z,3.30
2022-08-05T20:54:43.611Z,3.50
2022-08-05T20:57:24.774Z,3.72
2022-08-05T21:00:41.546Z,3.47
2022-08-05T21:03:06.901Z,3.53
2022-08-05T21:05:47.842Z,3.50
2022-08-05T21:08:35.918Z,3.65
2022-08-05T21:11:12.110Z,3.10
2022-08-05T21:13:55.823Z,3.10
2022-08-05T21:16:29.486Z,3.20
2022-08-05T21:19:01.598Z,3.33
2022-08-05T21:21:39.365Z,3.88
2022-08-05T21:24:12.688Z,3.13
2022-08-05T21:26:41.367Z,3.47
2022-08-05T21:29:12.647Z,3.60
2022-08-05T21:31:44.151Z,3.70
2022-08-05T21:34:11.441Z,3.40
2022-08-05T21:36:39.544Z,3.63
2022-08-05T21:39:10.208Z,3.40
2022-08-05T21:41:42.201Z,4.00
2022-08-05T21:44:27.080Z,3.88
2022-08-05T21:46:55.625Z,3.78
2022-08-05T21:49:48.564Z,3.70
2022-08-05T21:52:22.261Z,3.70
2022-08-05T21:54:56.001Z,3.70
2022-08-05T21:57:31.483Z,4.03
2022-08-05T22:00:11.222Z,3.60
2022-08-05T22:02:42.601Z,3.38
2022-08-05T22:05:13.535Z,3.53
2022-08-05T22:07:58.504Z,3.70
2022-08-05T22:10:27.654Z,3.63
2022-08-05T22:14:06.227Z,3.90
2022-08-05T22:16:02.431Z,3.78
2022-08-05T22:18:34.274Z,4.00
2022-08-05T22:21:03.992Z,3.85
2022-08-05T22:24:01.075Z,4.00
2022-08-05T22:26:50.358Z,3.00
2022-08-05T22:29:18.720Z,3.53
2022-08-05T22:31:55.276Z,3.45
2022-08-05T22:34:28.942Z,3.88
2022-08-05T22:36:58.423Z,3.85
2022-08-05T22:39:32.570Z,3.53
2022-08-05T22:42:10.687Z,3.15
2022-08-05T22:44:48.364Z,3.78
2022-08-05T22:47:28.585Z,3.90
2022-08-05T22:50:19.481Z,3.90
2022-08-05T22:52:46.405Z,3.85
2022-08-05T22:55:19.041Z,3.60
2022-08-05T22:57:50.192Z,3.70
2022-08-05T23:00:20.756Z,3.95
2022-08-05T23:02:49.398Z,3.97
2022-08-05T23:05:17.315Z,3.47
2022-08-05T23:07:48.550Z,3.88
2022-08-05T23:10:19.894Z,4.28
2022-08-05T23:12:54.786Z,3.83
2022-08-05T23:15:26.858Z,3.95
2022-08-05T23:18:00.466Z,3.95
2022-08-05T23:20:30.555Z,3.63
2022-08-05T23:22:58.707Z,3.65
2022-08-05T23:25:51.447Z,4.25
2022-08-05T23:28:13.223Z,3.40
2022-08-05T23:30:52.830Z,3.90
2022-08-05T23:33:26.192Z,3.65
2022-08-05T23:36:10.242Z,3.75
2022-08-05T23:38:37.969Z,3.28
2022-08-05T23:41:05.174Z,3.53
2022-08-05T23:44:04.614Z,4.15
2022-08-05T23:46:22.160Z,3.60
2022-08-05T23:48:59.965Z,3.53
2022-08-05T23:51:52.720Z,3.70
2022-08-05T23:54:36.552Z,3.50
2022-08-05T23:57:06.685Z,3.83
